sensor_id;sensor_type;location;lat;lon;timestamp;P1;durP1;ratioP1;P2;durP2;ratioP2
28613;SDS011;15806;53.548;9.964;2022-11-15T01:42:30;36.40;;;13.18;;
28613;SDS011;15806;53.548;9.964;2022-11-15T01:44:45;34.40;;;13.13;;
28613;SDS011;15806;53.548;9.964;2022-11-15T01:46:25;39.20;;;12.60;;
28613;SDS011;15806;53.548;9.964;2022-11-15T01:48:14;35.08;;;12.80;;
28613;SDS011;15806;53.548;9.964;2022-11-15T01:49:57;38.50;;;14.83;;
28613;SDS011;15806;53.548;9.964;2022-11-15T01:51:41;34.42;;;13.10;;
28613;SDS011;15806;53.548;9.964;2022-11-15T01:53:21;35.57;;;13.63;;
28613;SDS011;15806;53.548;9.964;2022-11-15T01:55:14;35.92;;;12.68;;
28613;SDS011;15806;53.548;9.964;2022-11-15T01:57:02;37.35;;;13.50;;
28613;SDS011;15806;53.548;9.964;2022-11-15T01:58:46;39.05;;;13.07;;
28613;SDS011;15806;53.548;9.964;2022-11-15T02:00:29;38.33;;;13.55;;
28613;SDS011;15806;53.548;9.964;2022-11-15T02:02:10;43.13;;;13.30;;
28613;SDS011;15806;53.548;9.964;2022-11-15T02:03:52;39.25;;;13.82;;
28613;SDS011;15806;53.548;9.964;2022-11-15T02:05:54;32.58;;;13.57;;
28613;SDS011;15806;53.548;9.964;2022-11-15T02:07:35;34.77;;;13.97;;
28613;SDS011;15806;53.548;9.964;2022-11-15T02:09:16;36.55;;;13.52;;
28613;SDS011;15806;53.548;9.964;2022-11-15T02:11:00;34.13;;;13.48;;
28613;SDS011;15806;53.548;9.964;2022-11-15T02:12:41;36.65;;;13.43;;
28613;SDS011;15806;53.548;9.964;2022-11-15T02:14:22;37.97;;;13.93;;
28613;SDS011;15806;53.548;9.964;2022-11-15T02:22:04;35.00;;;13.30;;
28613;SDS011;15806;53.548;9.964;2022-11-15T02:26:19;34.30;;;12.63;;
28613;SDS011;15806;53.548;9.964;2022-11-15T02:32:33;34.97;;;13.63;;
28613;SDS011;15806;53.548;9.964;2022-11-15T03:35:11;36.10;;;12.00;;
28613;SDS011;15806;53.548;9.964;2022-11-15T03:37:00;33.05;;;14.40;;
28613;SDS011;15806;53.548;9.964;2022-11-15T03:38:41;37.25;;;12.52;;
28613;SDS011;15806;53.548;9.964;2022-11-15T03:40:27;32.13;;;11.63;;
28613;SDS011;15806;53.548;9.964;2022-11-15T03:42:26;30.98;;;12.27;;
28613;SDS011;15806;53.548;9.964;2022-11-15T03:44:20;30.88;;;11.40;;
28613;SDS011;15806;53.548;9.964;2022-11-15T03:46:16;36.67;;;12.35;;
28613;SDS011;15806;53.548;9.964;2022-11-15T03:48:18;30.65;;;11.43;;
28613;SDS011;15806;53.548;9.964;2022-11-15T03:50:14;30.88;;;11.23;;
28613;SDS011;15806;53.548;9.964;2022-11-15T03:52:03;33.67;;;14.27;;
28613;SDS011;15806;53.548;9.964;2022-11-15T03:53:47;39.13;;;12.55;;
28613;SDS011;15806;53.548;9.964;2022-11-15T03:55:31;28.10;;;11.30;;
28613;SDS011;15806;53.548;9.964;2022-11-15T03:57:18;30.88;;;11.30;;
28613;SDS011;15806;53.548;9.964;2022-11-15T03:59:03;34.60;;;11.68;;
28613;SDS011;15806;53.548;9.964;2022-11-15T04:00:49;34.75;;;12.48;;
28613;SDS011;15806;53.548;9.964;2022-11-15T04:02:30;31.45;;;10.88;;
28613;SDS011;15806;53.548;9.964;2022-11-15T04:04:11;31.90;;;11.40;;
28613;SDS011;15806;53.548;9.964;2022-11-15T04:05:54;24.85;;;10.90;;
28613;SDS011;15806;53.548;9.964;2022-11-15T04:07:35;26.08;;;10.40;;
28613;SDS011;15806;53.548;9.964;2022-11-15T04:09:16;27.90;;;9.97;;
28613;SDS011;15806;53.548;9.964;2022-11-15T04:10:57;34.70;;;11.53;;
28613;SDS011;15806;53.548;9.964;2022-11-15T04:12:38;31.83;;;10.23;;
28613;SDS011;15806;53.548;9.964;2022-11-15T04:14:23;26.60;;;11.55;;
28613;SDS011;15806;53.548;9.964;2022-11-15T04:16:04;27.88;;;10.77;;
28613;SDS011;15806;53.548;9.964;2022-11-15T04:17:48;25.57;;;9.83;;
28613;SDS011;15806;53.548;9.964;2022-11-15T04:19:33;24.48;;;10.10;;
28613;SDS011;15806;53.548;9.964;2022-11-15T04:21:14;30.17;;;10.63;;
28613;SDS011;15806;53.548;9.964;2022-11-15T04:22:58;24.52;;;10.77;;
28613;SDS011;15806;53.548;9.964;2022-11-15T04:24:39;23.83;;;10.13;;
28613;SDS011;15806;53.548;9.964;2022-11-15T04:26:21;28.02;;;10.73;;
28613;SDS011;15806;53.548;9.964;2022-11-15T04:28:02;28.30;;;11.13;;
28613;SDS011;15806;53.548;9.964;2022-11-15T04:29:43;22.73;;;9.87;;
28613;SDS011;15806;53.548;9.964;2022-11-15T04:31:24;25.83;;;10.13;;
28613;SDS011;15806;53.548;9.964;2022-11-15T04:33:05;26.23;;;10.80;;
28613;SDS011;15806;53.548;9.964;2022-11-15T04:34:53;26.88;;;10.38;;
28613;SDS011;15806;53.548;9.964;2022-11-15T04:36:35;24.35;;;10.02;;
28613;SDS011;15806;53.548;9.964;2022-11-15T04:38:20;34.47;;;10.32;;
28613;SDS011;15806;53.548;9.964;2022-11-15T04:40:01;28.73;;;11.60;;
28613;SDS011;15806;53.548;9.964;2022-11-15T04:41:44;32.80;;;11.77;;
28613;SDS011;15806;53.548;9.964;2022-11-15T04:43:39;23.67;;;10.32;;
28613;SDS011;15806;53.548;9.964;2022-11-15T04:45:24;27.92;;;10.48;;
28613;SDS011;15806;53.548;9.964;2022-11-15T04:47:08;29.27;;;10.60;;
28613;SDS011;15806;53.548;9.964;2022-11-15T04:48:53;26.05;;;10.13;;
28613;SDS011;15806;53.548;9.964;2022-11-15T04:50:34;28.55;;;10.00;;
28613;SDS011;15806;53.548;9.964;2022-11-15T04:52:21;23.73;;;9.20;;
28613;SDS011;15806;53.548;9.964;2022-11-15T04:54:04;23.30;;;9.65;;
28613;SDS011;15806;53.548;9.964;2022-11-15T04:55:47;24.35;;;9.48;;
28613;SDS011;15806;53.548;9.964;2022-11-15T04:59:54;20.85;;;8.90;;
28613;SDS011;15806;53.548;9.964;2022-11-15T05:01:36;21.73;;;8.68;;
28613;SDS011;15806;53.548;9.964;2022-11-15T05:03:39;21.17;;;9.15;;
28613;SDS011;15806;53.548;9.964;2022-11-15T05:05:20;27.92;;;10.38;;
28613;SDS011;15806;53.548;9.964;2022-11-15T05:07:01;32.90;;;10.27;;
28613;SDS011;15806;53.548;9.964;2022-11-15T05:08:42;26.13;;;10.40;;
28613;SDS011;15806;53.548;9.964;2022-11-15T05:10:23;25.77;;;10.17;;
28613;SDS011;15806;53.548;9.964;2022-11-15T05:12:03;24.30;;;10.57;;
28613;SDS011;15806;53.548;9.964;2022-11-15T05:13:44;23.48;;;9.57;;
28613;SDS011;15806;53.548;9.964;2022-11-15T05:15:26;28.13;;;10.43;;
28613;SDS011;15806;53.548;9.964;2022-11-15T05:17:07;26.67;;;11.18;;
28613;SDS011;15806;53.548;9.964;2022-11-15T05:18:52;27.05;;;10.60;;
28613;SDS011;15806;53.548;9.964;2022-11-15T05:20:33;26.17;;;10.68;;
28613;SDS011;15806;53.548;9.964;2022-11-15T05:22:14;29.40;;;11.53;;
28613;SDS011;15806;53.548;9.964;2022-11-15T05:23:55;22.90;;;9.27;;
28613;SDS011;15806;53.548;9.964;2022-11-15T05:25:36;25.83;;;9.67;;
28613;SDS011;15806;53.548;9.964;2022-11-15T05:27:16;29.73;;;10.88;;
28613;SDS011;15806;53.548;9.964;2022-11-15T05:28:58;29.33;;;10.77;;
28613;SDS011;15806;53.548;9.964;2022-11-15T05:30:39;27.47;;;10.30;;
28613;SDS011;15806;53.548;9.964;2022-11-15T05:32:19;26.67;;;10.87;;
28613;SDS011;15806;53.548;9.964;2022-11-15T05:34:01;27.35;;;11.85;;
28613;SDS011;15806;53.548;9.964;2022-11-15T05:35:48;28.10;;;11.30;;
28613;SDS011;15806;53.548;9.964;2022-11-15T05:37:35;25.38;;;9.65;;
28613;SDS011;15806;53.548;9.964;2022-11-15T05:39:15;31.67;;;12.23;;
28613;SDS011;15806;53.548;9.964;2022-11-15T05:40:56;24.63;;;10.17;;
28613;SDS011;15806;53.548;9.964;2022-11-15T05:42:36;24.67;;;9.43;;
28613;SDS011;15806;53.548;9.964;2022-11-15T05:44:18;28.08;;;11.80;;
28613;SDS011;15806;53.548;9.964;2022-11-15T05:46:01;23.38;;;9.48;;
28613;SDS011;15806;53.548;9.964;2022-11-15T05:47:44;26.27;;;10.20;;
28613;SDS011;15806;53.548;9.964;2022-11-15T05:49:27;26.00;;;9.75;;
28613;SDS011;15806;53.548;9.964;2022-11-15T05:51:11;25.83;;;10.30;;
28613;SDS011;15806;53.548;9.964;2022-11-15T05:52:53;27.23;;;9.95;;
28613;SDS011;15806;53.548;9.964;2022-11-15T05:54:34;30.93;;;11.93;;
28613;SDS011;15806;53.548;9.964;2022-11-15T05:57:56;24.48;;;9.88;;
28613;SDS011;15806;53.548;9.964;2022-11-15T05:59:37;26.70;;;9.53;;
28613;SDS011;15806;53.548;9.964;2022-11-15T06:01:18;26.53;;;10.13;;
28613;SDS011;15806;53.548;9.964;2022-11-15T06:02:58;31.53;;;9.20;;
28613;SDS011;15806;53.548;9.964;2022-11-15T06:04:39;25.50;;;10.43;;
28613;SDS011;15806;53.548;9.964;2022-11-15T06:06:19;22.47;;;10.03;;
28613;SDS011;15806;53.548;9.964;2022-11-15T06:08:00;23.73;;;10.80;;
28613;SDS011;15806;53.548;9.964;2022-11-15T06:09:41;20.60;;;9.43;;
28613;SDS011;15806;53.548;9.964;2022-11-15T06:11:21;24.67;;;9.60;;
28613;SDS011;15806;53.548;9.964;2022-11-15T06:13:03;23.60;;;9.83;;
28613;SDS011;15806;53.548;9.964;2022-11-15T06:14:44;24.48;;;10.50;;
28613;SDS011;15806;53.548;9.964;2022-11-15T06:16:24;21.67;;;10.07;;
28613;SDS011;15806;53.548;9.964;2022-11-15T06:18:05;29.40;;;10.63;;
28613;SDS011;15806;53.548;9.964;2022-11-15T06:19:45;22.60;;;8.77;;
28613;SDS011;15806;53.548;9.964;2022-11-15T06:21:26;25.93;;;9.20;;
28613;SDS011;15806;53.548;9.964;2022-11-15T06:23:06;17.73;;;8.60;;
28613;SDS011;15806;53.548;9.964;2022-11-15T06:24:47;25.23;;;10.63;;
28613;SDS011;15806;53.548;9.964;2022-11-15T06:26:28;22.90;;;8.57;;
28613;SDS011;15806;53.548;9.964;2022-11-15T06:28:08;21.50;;;8.90;;
28613;SDS011;15806;53.548;9.964;2022-11-15T06:29:49;21.10;;;8.83;;
28613;SDS011;15806;53.548;9.964;2022-11-15T06:31:29;23.00;;;9.27;;
28613;SDS011;15806;53.548;9.964;2022-11-15T06:33:10;19.83;;;9.17;;
28613;SDS011;15806;53.548;9.964;2022-11-15T06:34:50;21.53;;;8.80;;
28613;SDS011;15806;53.548;9.964;2022-11-15T06:36:31;21.87;;;8.77;;
28613;SDS011;15806;53.548;9.964;2022-11-15T06:38:14;21.58;;;8.75;;
28613;SDS011;15806;53.548;9.964;2022-11-15T06:39:55;21.40;;;10.00;;
28613;SDS011;15806;53.548;9.964;2022-11-15T06:41:36;22.48;;;9.65;;
28613;SDS011;15806;53.548;9.964;2022-11-15T06:43:16;20.33;;;8.97;;
28613;SDS011;15806;53.548;9.964;2022-11-15T06:44:57;23.53;;;9.37;;
28613;SDS011;15806;53.548;9.964;2022-11-15T06:46:37;19.73;;;9.13;;
28613;SDS011;15806;53.548;9.964;2022-11-15T06:48:18;22.93;;;9.47;;
28613;SDS011;15806;53.548;9.964;2022-11-15T06:49:58;25.73;;;10.73;;
28613;SDS011;15806;53.548;9.964;2022-11-15T06:51:39;22.57;;;8.80;;
28613;SDS011;15806;53.548;9.964;2022-11-15T06:53:19;24.73;;;9.77;;
28613;SDS011;15806;53.548;9.964;2022-11-15T06:55:00;21.80;;;9.00;;
28613;SDS011;15806;53.548;9.964;2022-11-15T06:56:41;18.27;;;9.07;;
28613;SDS011;15806;53.548;9.964;2022-11-15T06:58:21;22.43;;;9.33;;
28613;SDS011;15806;53.548;9.964;2022-11-15T07:00:05;21.03;;;8.10;;
28613;SDS011;15806;53.548;9.964;2022-11-15T07:01:46;25.90;;;9.27;;
28613;SDS011;15806;53.548;9.964;2022-11-15T07:03:26;24.73;;;9.20;;
28613;SDS011;15806;53.548;9.964;2022-11-15T07:05:07;19.20;;;8.13;;
28613;SDS011;15806;53.548;9.964;2022-11-15T07:06:48;23.70;;;9.32;;
28613;SDS011;15806;53.548;9.964;2022-11-15T07:08:29;22.70;;;9.00;;
28613;SDS011;15806;53.548;9.964;2022-11-15T07:10:11;26.15;;;10.73;;
28613;SDS011;15806;53.548;9.964;2022-11-15T07:13:32;21.55;;;8.52;;
28613;SDS011;15806;53.548;9.964;2022-11-15T07:15:15;27.02;;;9.85;;
28613;SDS011;15806;53.548;9.964;2022-11-15T07:16:56;25.02;;;10.93;;
28613;SDS011;15806;53.548;9.964;2022-11-15T07:18:38;24.33;;;9.70;;
28613;SDS011;15806;53.548;9.964;2022-11-15T07:20:19;19.15;;;8.57;;
28613;SDS011;15806;53.548;9.964;2022-11-15T07:22:00;23.43;;;8.70;;
28613;SDS011;15806;53.548;9.964;2022-11-15T07:23:40;18.57;;;7.80;;
28613;SDS011;15806;53.548;9.964;2022-11-15T07:25:21;21.47;;;8.40;;
28613;SDS011;15806;53.548;9.964;2022-11-15T07:27:01;19.00;;;8.90;;
28613;SDS011;15806;53.548;9.964;2022-11-15T07:28:42;19.13;;;8.43;;
28613;SDS011;15806;53.548;9.964;2022-11-15T07:30:22;22.67;;;8.53;;
28613;SDS011;15806;53.548;9.964;2022-11-15T07:32:03;19.20;;;8.85;;
28613;SDS011;15806;53.548;9.964;2022-11-15T07:33:44;22.90;;;8.77;;
28613;SDS011;15806;53.548;9.964;2022-11-15T07:35:25;22.80;;;8.10;;
28613;SDS011;15806;53.548;9.964;2022-11-15T07:37:06;21.10;;;9.05;;
28613;SDS011;15806;53.548;9.964;2022-11-15T07:38:47;25.63;;;8.40;;
28613;SDS011;15806;53.548;9.964;2022-11-15T07:40:29;21.80;;;8.20;;
28613;SDS011;15806;53.548;9.964;2022-11-15T07:42:11;21.65;;;8.48;;
28613;SDS011;15806;53.548;9.964;2022-11-15T07:43:52;23.15;;;8.95;;
28613;SDS011;15806;53.548;9.964;2022-11-15T07:45:33;17.50;;;8.30;;
28613;SDS011;15806;53.548;9.964;2022-11-15T07:47:19;19.90;;;8.50;;
28613;SDS011;15806;53.548;9.964;2022-11-15T07:49:00;19.97;;;9.03;;
28613;SDS011;15806;53.548;9.964;2022-11-15T07:50:42;19.90;;;7.90;;
28613;SDS011;15806;53.548;9.964;2022-11-15T07:52:22;20.58;;;8.85;;
28613;SDS011;15806;53.548;9.964;2022-11-15T07:54:03;23.70;;;9.67;;
28613;SDS011;15806;53.548;9.964;2022-11-15T07:55:43;24.10;;;8.43;;
28613;SDS011;15806;53.548;9.964;2022-11-15T07:57:24;19.37;;;8.60;;
28613;SDS011;15806;53.548;9.964;2022-11-15T07:59:04;22.80;;;8.73;;
28613;SDS011;15806;53.548;9.964;2022-11-15T08:00:45;29.33;;;12.13;;
28613;SDS011;15806;53.548;9.964;2022-11-15T08:02:25;21.53;;;9.90;;
28613;SDS011;15806;53.548;9.964;2022-11-15T08:04:06;21.20;;;9.13;;
28613;SDS011;15806;53.548;9.964;2022-11-15T08:05:50;21.13;;;9.00;;
28613;SDS011;15806;53.548;9.964;2022-11-15T08:07:31;22.70;;;9.48;;
28613;SDS011;15806;53.548;9.964;2022-11-15T08:09:12;23.63;;;9.77;;
28613;SDS011;15806;53.548;9.964;2022-11-15T08:10:53;25.17;;;10.38;;
28613;SDS011;15806;53.548;9.964;2022-11-15T08:12:33;25.93;;;10.13;;
28613;SDS011;15806;53.548;9.964;2022-11-15T08:14:14;23.33;;;9.33;;
28613;SDS011;15806;53.548;9.964;2022-11-15T08:15:58;23.63;;;9.43;;
28613;SDS011;15806;53.548;9.964;2022-11-15T08:17:39;28.42;;;10.40;;
28613;SDS011;15806;53.548;9.964;2022-11-15T08:19:20;26.27;;;9.97;;
28613;SDS011;15806;53.548;9.964;2022-11-15T08:21:01;23.57;;;9.20;;
28613;SDS011;15806;53.548;9.964;2022-11-15T08:22:42;23.67;;;8.60;;
28613;SDS011;15806;53.548;9.964;2022-11-15T08:24:22;20.73;;;9.00;;
28613;SDS011;15806;53.548;9.964;2022-11-15T08:26:03;21.77;;;8.73;;
28613;SDS011;15806;53.548;9.964;2022-11-15T08:27:44;26.73;;;10.10;;
28613;SDS011;15806;53.548;9.964;2022-11-15T08:29:25;21.67;;;9.20;;
28613;SDS011;15806;53.548;9.964;2022-11-15T08:31:12;23.57;;;11.13;;
28613;SDS011;15806;53.548;9.964;2022-11-15T08:32:55;21.80;;;9.32;;
28613;SDS011;15806;53.548;9.964;2022-11-15T08:34:37;21.92;;;8.43;;
28613;SDS011;15806;53.548;9.964;2022-11-15T08:36:18;22.00;;;9.32;;
28613;SDS011;15806;53.548;9.964;2022-11-15T08:38:00;18.20;;;8.23;;
28613;SDS011;15806;53.548;9.964;2022-11-15T08:39:41;19.37;;;9.20;;
28613;SDS011;15806;53.548;9.964;2022-11-15T08:41:31;24.27;;;10.53;;
28613;SDS011;15806;53.548;9.964;2022-11-15T08:43:13;19.17;;;8.30;;
28613;SDS011;15806;53.548;9.964;2022-11-15T08:44:54;28.17;;;10.10;;
28613;SDS011;15806;53.548;9.964;2022-11-15T08:46:34;21.23;;;10.30;;
28613;SDS011;15806;53.548;9.964;2022-11-15T08:48:15;25.47;;;10.40;;
28613;SDS011;15806;53.548;9.964;2022-11-15T08:49:55;27.77;;;9.57;;
28613;SDS011;15806;53.548;9.964;2022-11-15T08:51:36;18.37;;;8.57;;
28613;SDS011;15806;53.548;9.964;2022-11-15T08:53:16;22.87;;;9.17;;
28613;SDS011;15806;53.548;9.964;2022-11-15T08:54:57;18.83;;;8.40;;
28613;SDS011;15806;53.548;9.964;2022-11-15T08:56:38;21.07;;;9.37;;
28613;SDS011;15806;53.548;9.964;2022-11-15T08:58:18;23.17;;;9.13;;
28613;SDS011;15806;53.548;9.964;2022-11-15T08:59:59;24.17;;;10.17;;
28613;SDS011;15806;53.548;9.964;2022-11-15T09:01:39;24.97;;;10.03;;
28613;SDS011;15806;53.548;9.964;2022-11-15T09:03:20;22.60;;;9.10;;
28613;SDS011;15806;53.548;9.964;2022-11-15T09:05:00;17.10;;;8.07;;
28613;SDS011;15806;53.548;9.964;2022-11-15T09:06:42;22.67;;;9.20;;
28613;SDS011;15806;53.548;9.964;2022-11-15T09:08:23;22.73;;;8.95;;
28613;SDS011;15806;53.548;9.964;2022-11-15T09:10:05;31.40;;;9.40;;
28613;SDS011;15806;53.548;9.964;2022-11-15T09:11:46;24.20;;;9.68;;
28613;SDS011;15806;53.548;9.964;2022-11-15T09:13:26;19.67;;;9.37;;
28613;SDS011;15806;53.548;9.964;2022-11-15T09:15:07;22.30;;;8.87;;
28613;SDS011;15806;53.548;9.964;2022-11-15T09:16:48;21.05;;;9.07;;
28613;SDS011;15806;53.548;9.964;2022-11-15T09:18:30;17.77;;;8.73;;
28613;SDS011;15806;53.548;9.964;2022-11-15T09:20:11;20.05;;;8.32;;
28613;SDS011;15806;53.548;9.964;2022-11-15T09:21:51;20.70;;;8.63;;
28613;SDS011;15806;53.548;9.964;2022-11-15T09:23:32;21.58;;;9.40;;
28613;SDS011;15806;53.548;9.964;2022-11-15T09:25:13;18.63;;;8.23;;
28613;SDS011;15806;53.548;9.964;2022-11-15T09:26:53;20.37;;;9.07;;
28613;SDS011;15806;53.548;9.964;2022-11-15T09:28:34;21.77;;;8.70;;
28613;SDS011;15806;53.548;9.964;2022-11-15T09:30:16;21.58;;;9.13;;
28613;SDS011;15806;53.548;9.964;2022-11-15T09:31:57;21.33;;;8.65;;
28613;SDS011;15806;53.548;9.964;2022-11-15T09:33:38;21.80;;;8.57;;
28613;SDS011;15806;53.548;9.964;2022-11-15T09:35:20;20.50;;;8.47;;
28613;SDS011;15806;53.548;9.964;2022-11-15T09:37:00;18.13;;;7.60;;
28613;SDS011;15806;53.548;9.964;2022-11-15T09:38:41;19.17;;;9.40;;
28613;SDS011;15806;53.548;9.964;2022-11-15T09:40:22;21.52;;;8.88;;
28613;SDS011;15806;53.548;9.964;2022-11-15T09:42:18;21.77;;;9.00;;
28613;SDS011;15806;53.548;9.964;2022-11-15T09:46:38;21.02;;;8.45;;
28613;SDS011;15806;53.548;9.964;2022-11-15T09:48:56;19.73;;;7.63;;
28613;SDS011;15806;53.548;9.964;2022-11-15T09:52:29;19.48;;;9.75;;
28613;SDS011;15806;53.548;9.964;2022-11-15T09:54:11;27.27;;;8.93;;
28613;SDS011;15806;53.548;9.964;2022-11-15T09:56:13;20.23;;;8.27;;
28613;SDS011;15806;53.548;9.964;2022-11-15T09:58:15;19.17;;;8.45;;
28613;SDS011;15806;53.548;9.964;2022-11-15T10:03:54;22.13;;;8.45;;
28613;SDS011;15806;53.548;9.964;2022-11-15T10:07:35;22.15;;;9.13;;
28613;SDS011;15806;53.548;9.964;2022-11-15T10:09:37;25.88;;;9.10;;
28613;SDS011;15806;53.548;9.964;2022-11-15T10:11:31;34.20;;;10.68;;
28613;SDS011;15806;53.548;9.964;2022-11-15T10:13:22;21.55;;;9.15;;
28613;SDS011;15806;53.548;9.964;2022-11-15T10:15:12;17.88;;;8.25;;
28613;SDS011;15806;53.548;9.964;2022-11-15T10:20:49;18.27;;;8.50;;
28613;SDS011;15806;53.548;9.964;2022-11-15T10:24:33;21.52;;;8.77;;
28613;SDS011;15806;53.548;9.964;2022-11-15T10:26:17;19.25;;;7.95;;
28613;SDS011;15806;53.548;9.964;2022-11-15T10:27:59;20.47;;;9.00;;
28613;SDS011;15806;53.548;9.964;2022-11-15T10:29:53;19.30;;;8.15;;
28613;SDS011;15806;53.548;9.964;2022-11-15T10:31:34;19.77;;;8.17;;
28613;SDS011;15806;53.548;9.964;2022-11-15T10:33:19;20.63;;;7.60;;
28613;SDS011;15806;53.548;9.964;2022-11-15T10:35:21;16.30;;;7.35;;
28613;SDS011;15806;53.548;9.964;2022-11-15T10:37:07;17.42;;;8.40;;
28613;SDS011;15806;53.548;9.964;2022-11-15T10:40:28;17.40;;;7.50;;
28613;SDS011;15806;53.548;9.964;2022-11-15T10:42:25;21.70;;;7.93;;
28613;SDS011;15806;53.548;9.964;2022-11-15T10:45:56;18.60;;;8.02;;
28613;SDS011;15806;53.548;9.964;2022-11-15T10:49:53;18.17;;;8.40;;
28613;SDS011;15806;53.548;9.964;2022-11-15T10:53:57;20.02;;;8.95;;
28613;SDS011;15806;53.548;9.964;2022-11-15T10:55:40;17.05;;;8.23;;
28613;SDS011;15806;53.548;9.964;2022-11-15T10:57:29;21.27;;;8.05;;
28613;SDS011;15806;53.548;9.964;2022-11-15T10:59:14;30.35;;;10.20;;
28613;SDS011;15806;53.548;9.964;2022-11-15T11:01:05;20.27;;;7.85;;
28613;SDS011;15806;53.548;9.964;2022-11-15T11:04:49;18.38;;;7.80;;
28613;SDS011;15806;53.548;9.964;2022-11-15T11:06:31;18.75;;;8.90;;
28613;SDS011;15806;53.548;9.964;2022-11-15T11:08:28;21.75;;;8.27;;
28613;SDS011;15806;53.548;9.964;2022-11-15T11:10:20;22.98;;;9.25;;
28613;SDS011;15806;53.548;9.964;2022-11-15T11:12:02;16.00;;;7.20;;
28613;SDS011;15806;53.548;9.964;2022-11-15T11:13:44;21.20;;;8.82;;
28613;SDS011;15806;53.548;9.964;2022-11-15T11:15:25;23.60;;;10.30;;
28613;SDS011;15806;53.548;9.964;2022-11-15T11:17:26;16.08;;;7.63;;
28613;SDS011;15806;53.548;9.964;2022-11-15T11:19:23;19.08;;;8.13;;
28613;SDS011;15806;53.548;9.964;2022-11-15T11:21:42;16.08;;;7.55;;
28613;SDS011;15806;53.548;9.964;2022-11-15T11:27:58;16.05;;;7.22;;
28613;SDS011;15806;53.548;9.964;2022-11-15T11:30:01;17.98;;;7.07;;
28613;SDS011;15806;53.548;9.964;2022-11-15T11:32:46;15.05;;;6.72;;
28613;SDS011;15806;53.548;9.964;2022-11-15T11:36:06;18.48;;;8.40;;
28613;SDS011;15806;53.548;9.964;2022-11-15T11:43:51;19.02;;;7.10;;
28613;SDS011;15806;53.548;9.964;2022-11-15T11:48:13;19.25;;;7.40;;
28613;SDS011;15806;53.548;9.964;2022-11-15T11:49:57;15.67;;;8.00;;
28613;SDS011;15806;53.548;9.964;2022-11-15T11:51:42;22.40;;;7.75;;
28613;SDS011;15806;53.548;9.964;2022-11-15T11:53:29;17.80;;;7.60;;
28613;SDS011;15806;53.548;9.964;2022-11-15T12:04:08;17.48;;;6.63;;
28613;SDS011;15806;53.548;9.964;2022-11-15T12:06:00;17.85;;;6.70;;
28613;SDS011;15806;53.548;9.964;2022-11-15T12:07:46;12.70;;;6.18;;
28613;SDS011;15806;53.548;9.964;2022-11-15T12:09:38;15.52;;;6.88;;
28613;SDS011;15806;53.548;9.964;2022-11-15T12:11:35;13.85;;;6.75;;
28613;SDS011;15806;53.548;9.964;2022-11-15T12:13:32;15.40;;;6.75;;
28613;SDS011;15806;53.548;9.964;2022-11-15T12:17:03;13.57;;;6.45;;
28613;SDS011;15806;53.548;9.964;2022-11-15T12:18:44;18.40;;;7.00;;
28613;SDS011;15806;53.548;9.964;2022-11-15T12:20:30;13.98;;;5.88;;
28613;SDS011;15806;53.548;9.964;2022-11-15T12:24:04;16.83;;;6.68;;
28613;SDS011;15806;53.548;9.964;2022-11-15T12:26:04;14.80;;;6.53;;
28613;SDS011;15806;53.548;9.964;2022-11-15T12:27:53;15.52;;;6.63;;
28613;SDS011;15806;53.548;9.964;2022-11-15T12:29:45;13.25;;;6.32;;
28613;SDS011;15806;53.548;9.964;2022-11-15T12:35:23;13.15;;;6.97;;
28613;SDS011;15806;53.548;9.964;2022-11-15T12:37:52;12.30;;;5.85;;
28613;SDS011;15806;53.548;9.964;2022-11-15T12:39:16;11.18;;;5.63;;
28613;SDS011;15806;53.548;9.964;2022-11-15T12:41:14;11.07;;;6.15;;
28613;SDS011;15806;53.548;9.964;2022-11-15T12:42:58;12.70;;;5.93;;
28613;SDS011;15806;53.548;9.964;2022-11-15T12:49:57;11.00;;;5.60;;
28613;SDS011;15806;53.548;9.964;2022-11-15T12:53:28;10.60;;;5.63;;
28613;SDS011;15806;53.548;9.964;2022-11-15T12:55:28;13.90;;;6.22;;
28613;SDS011;15806;53.548;9.964;2022-11-15T12:58:57;10.77;;;5.50;;
28613;SDS011;15806;53.548;9.964;2022-11-15T13:00:38;13.52;;;5.40;;
28613;SDS011;15806;53.548;9.964;2022-11-15T13:04:21;9.98;;;5.22;;
28613;SDS011;15806;53.548;9.964;2022-11-15T13:06:04;13.63;;;5.13;;
28613;SDS011;15806;53.548;9.964;2022-11-15T13:11:41;12.82;;;5.72;;
28613;SDS011;15806;53.548;9.964;2022-11-15T13:13:42;10.18;;;5.85;;
28613;SDS011;15806;53.548;9.964;2022-11-15T13:15:32;16.02;;;5.43;;
28613;SDS011;15806;53.548;9.964;2022-11-15T13:17:29;12.00;;;5.90;;
28613;SDS011;15806;53.548;9.964;2022-11-15T13:19:15;15.73;;;6.53;;
28613;SDS011;15806;53.548;9.964;2022-11-15T13:20:59;15.30;;;6.20;;
28613;SDS011;15806;53.548;9.964;2022-11-15T13:24:42;15.02;;;5.57;;
28613;SDS011;15806;53.548;9.964;2022-11-15T13:26:23;15.10;;;6.37;;
28613;SDS011;15806;53.548;9.964;2022-11-15T13:29:56;16.70;;;6.80;;
28613;SDS011;15806;53.548;9.964;2022-11-15T13:31:39;13.93;;;5.03;;
28613;SDS011;15806;53.548;9.964;2022-11-15T13:33:23;13.60;;;6.75;;
28613;SDS011;15806;53.548;9.964;2022-11-15T13:35:20;12.07;;;5.97;;
28613;SDS011;15806;53.548;9.964;2022-11-15T13:37:09;10.52;;;5.18;;
28613;SDS011;15806;53.548;9.964;2022-11-15T13:39:34;9.68;;;4.93;;
28613;SDS011;15806;53.548;9.964;2022-11-15T13:41:20;10.98;;;5.80;;
28613;SDS011;15806;53.548;9.964;2022-11-15T13:45:02;15.32;;;5.85;;
28613;SDS011;15806;53.548;9.964;2022-11-15T13:46:44;15.80;;;6.30;;
28613;SDS011;15806;53.548;9.964;2022-11-15T13:48:25;13.13;;;5.30;;
28613;SDS011;15806;53.548;9.964;2022-11-15T13:50:12;18.67;;;5.85;;
28613;SDS011;15806;53.548;9.964;2022-11-15T13:51:53;11.30;;;5.70;;
28613;SDS011;15806;53.548;9.964;2022-11-15T13:55:17;11.65;;;4.97;;
28613;SDS011;15806;53.548;9.964;2022-11-15T13:57:02;10.27;;;5.30;;
28613;SDS011;15806;53.548;9.964;2022-11-15T13:59:13;10.75;;;5.22;;
28613;SDS011;15806;53.548;9.964;2022-11-15T14:01:03;13.77;;;5.45;;
28613;SDS011;15806;53.548;9.964;2022-11-15T14:02:44;11.43;;;5.32;;
28613;SDS011;15806;53.548;9.964;2022-11-15T14:04:25;11.10;;;5.33;;
28613;SDS011;15806;53.548;9.964;2022-11-15T14:06:12;11.02;;;4.82;;
28613;SDS011;15806;53.548;9.964;2022-11-15T14:07:58;13.80;;;5.07;;
28613;SDS011;15806;53.548;9.964;2022-11-15T14:09:41;10.02;;;4.95;;
28613;SDS011;15806;53.548;9.964;2022-11-15T14:11:23;12.35;;;5.13;;
28613;SDS011;15806;53.548;9.964;2022-11-15T14:13:04;14.00;;;5.28;;
28613;SDS011;15806;53.548;9.964;2022-11-15T14:15:48;10.52;;;5.00;;
28613;SDS011;15806;53.548;9.964;2022-11-15T14:17:21;11.48;;;4.75;;
28613;SDS011;15806;53.548;9.964;2022-11-15T14:21:06;12.05;;;5.25;;
28613;SDS011;15806;53.548;9.964;2022-11-15T14:22:54;12.55;;;6.05;;
28613;SDS011;15806;53.548;9.964;2022-11-15T14:24:36;12.00;;;5.85;;
28613;SDS011;15806;53.548;9.964;2022-11-15T14:28:13;12.65;;;4.85;;
28613;SDS011;15806;53.548;9.964;2022-11-15T14:30:03;11.57;;;5.70;;
28613;SDS011;15806;53.548;9.964;2022-11-15T14:31:44;9.13;;;4.80;;
28613;SDS011;15806;53.548;9.964;2022-11-15T14:33:36;11.93;;;5.63;;
28613;SDS011;15806;53.548;9.964;2022-11-15T14:35:18;11.68;;;6.10;;
28613;SDS011;15806;53.548;9.964;2022-11-15T14:37:00;12.30;;;5.13;;
28613;SDS011;15806;53.548;9.964;2022-11-15T14:38:41;11.23;;;6.13;;
28613;SDS011;15806;53.548;9.964;2022-11-15T14:40:21;11.90;;;5.57;;
28613;SDS011;15806;53.548;9.964;2022-11-15T14:42:02;13.60;;;5.50;;
28613;SDS011;15806;53.548;9.964;2022-11-15T14:43:45;12.15;;;5.95;;